Peck, Louisiana
Current Conditions -  °F | °C
As of 10:15 AM on Monday 24 Nov 2014 (Local Time) from KHEZ Reporting Station
Few Clouds Few Clouds  
Wind Chill: 55°   Ceiling: Unl
Heat Index: 55°   Visibility: 10mi
Dew Point: 43°   Wind: 13mph
Humidity: 63%   Direction: 320°NW
Pressure: 29.98"   Gusts: 17mph
Location:  31.8591°N, 91.6926°W
Report Text: KHEZ 241615Z AUTO 32011G15KT 10SM FEW029 13/06 A2998 RMK AO1
Loading
Personal Weather Stations






























Interactive Weather Map New forecast layout! Learn more

10-Day Weather Forecast

Advertisements
Track Severe Weather on mobile